Time;durP1;ratioP1;P1;durP2;ratioP2;P2;SDS_P1;SDS_P2;PMS_P1;PMS_P2;Temp;Humidity;BMP_temperature;BMP_pressure;BME280_temperature;BME280_humidity;BME280_pressure;Samples;Min_cycle;Max_cycle;Signal;HPM_P1;HPM_P2
2021/12/30 00:00:49;;;;;;;2.13;1.30;;;24.00;52.20;;;;;;5087242;28;20318;-53
2021/12/30 00:03:20;;;;;;;2.22;1.38;;;24.00;52.10;;;;;;5070936;28;20302;-48
2021/12/30 00:05:52;;;;;;;2.33;1.25;;;24.10;52.00;;;;;;5071494;28;20199;-42
2021/12/30 00:08:22;;;;;;;2.05;1.25;;;24.10;52.00;;;;;;5072109;28;20201;-41
2021/12/30 00:10:53;;;;;;;2.10;1.20;;;24.10;52.00;;;;;;5069526;28;20294;-43
2021/12/30 00:13:27;;;;;;;2.10;1.25;;;24.20;52.00;;;;;;5071069;28;20577;-44
2021/12/30 00:15:57;;;;;;;1.95;1.20;;;24.20;51.80;;;;;;5070666;28;20191;-46
2021/12/30 00:18:28;;;;;;;2.35;1.20;;;24.30;51.80;;;;;;5076575;28;20281;-51
2021/12/30 00:20:59;;;;;;;2.30;1.25;;;24.30;51.70;;;;;;5080043;28;20783;-51
2021/12/30 00:23:29;;;;;;;1.92;1.20;;;24.30;51.80;;;;;;5073852;28;20277;-45
2021/12/30 00:25:59;;;;;;;2.15;1.20;;;24.30;51.80;;;;;;5082209;28;20733;-45
2021/12/30 00:28:32;;;;;;;1.08;0.90;;;24.40;52.10;;;;;;5071321;28;20237;-48
2021/12/30 00:31:02;;;;;;;1.83;0.95;;;24.40;52.20;;;;;;5071429;28;20285;-41
2021/12/30 00:33:34;;;;;;;2.65;1.17;;;24.50;52.10;;;;;;5071464;28;20281;-48
2021/12/30 00:36:06;;;;;;;3.03;1.27;;;24.50;52.20;;;;;;5071185;28;20605;-49
2021/12/30 00:38:37;;;;;;;2.25;1.33;;;24.50;52.10;;;;;;5081562;28;20656;-46
2021/12/30 00:41:09;;;;;;;1.23;1.00;;;24.60;52.00;;;;;;5069470;28;20334;-44
2021/12/30 00:43:41;;;;;;;1.38;1.08;;;24.70;52.00;;;;;;5079801;28;20197;-47
2021/12/30 00:46:12;;;;;;;1.50;1.10;;;24.70;52.00;;;;;;5072349;28;20233;-49
2021/12/30 00:48:43;;;;;;;1.98;1.17;;;24.70;51.90;;;;;;5069575;28;20205;-45
2021/12/30 00:51:14;;;;;;;1.60;1.10;;;24.80;51.90;;;;;;5069167;28;20289;-47
2021/12/30 00:53:44;;;;;;;1.45;1.13;;;24.80;51.60;;;;;;5070645;28;20278;-41
2021/12/30 00:56:15;;;;;;;1.25;0.98;;;24.90;51.60;;;;;;5070974;28;20324;-43
2021/12/30 00:58:48;;;;;;;1.52;1.10;;;24.90;51.40;;;;;;5070926;28;20698;-41
2021/12/30 01:01:18;;;;;;;1.45;1.13;;;24.90;51.20;;;;;;5070869;28;20301;-51
2021/12/30 01:03:49;;;;;;;1.13;0.90;;;25.00;51.20;;;;;;5070892;28;20701;-39
2021/12/30 01:06:19;;;;;;;1.20;0.95;;;25.00;51.10;;;;;;5070123;28;20337;-42
2021/12/30 01:08:50;;;;;;;0.90;0.80;;;25.00;51.00;;;;;;5081407;28;20277;-43
2021/12/30 01:11:22;;;;;;;1.30;1.00;;;25.10;51.00;;;;;;5070928;28;20273;-42
2021/12/30 01:14:01;;;;;;;1.20;0.98;;;25.10;50.90;;;;;;5070702;28;20222;-41
2021/12/30 01:16:36;;;;;;;2.03;1.20;;;25.10;50.90;;;;;;5068406;28;20234;-44
2021/12/30 01:19:22;;;;;;;1.33;0.85;;;25.20;51.00;;;;;;5068394;28;20210;-46
2021/12/30 01:21:54;;;;;;;1.52;0.90;;;25.20;51.00;;;;;;5074504;28;20256;-40
2021/12/30 01:24:25;;;;;;;0.90;0.80;;;25.20;50.90;;;;;;5088549;28;20717;-51
2021/12/30 01:26:56;;;;;;;1.80;1.00;;;25.30;50.90;;;;;;5072819;28;20203;-44
2021/12/30 01:29:30;;;;;;;1.17;1.08;;;25.30;50.80;;;;;;5087870;28;20221;-51
2021/12/30 01:32:00;;;;;;;1.05;0.85;;;25.30;50.70;;;;;;5074984;28;20210;-42
2021/12/30 01:34:32;;;;;;;0.98;0.82;;;25.40;50.70;;;;;;5076449;28;20285;-40
2021/12/30 01:37:04;;;;;;;1.27;0.90;;;25.40;50.60;;;;;;5079251;28;20569;-42
2021/12/30 01:39:37;;;;;;;1.08;0.90;;;25.50;50.50;;;;;;5073926;28;20223;-44
2021/12/30 01:42:12;;;;;;;1.70;1.13;;;25.50;50.40;;;;;;5074228;28;20282;-47
2021/12/30 01:44:44;;;;;;;1.52;0.70;;;25.60;50.30;;;;;;5072965;28;20658;-53
2021/12/30 01:47:14;;;;;;;1.70;0.73;;;25.60;50.00;;;;;;5072777;28;20222;-49
2021/12/30 01:49:46;;;;;;;1.17;0.93;;;25.60;49.90;;;;;;5073712;28;20249;-41
2021/12/30 01:52:16;;;;;;;1.30;0.90;;;25.60;49.90;;;;;;5074083;28;20203;-50
2021/12/30 01:54:46;;;;;;;1.95;0.77;;;25.70;49.90;;;;;;5087481;28;20497;-41
2021/12/30 01:57:17;;;;;;;0.95;0.80;;;25.70;49.80;;;;;;5072113;28;20281;-38
2021/12/30 01:59:49;;;;;;;1.23;0.75;;;25.70;49.80;;;;;;5072836;28;20315;-51
2021/12/30 02:02:20;;;;;;;0.80;0.80;;;25.80;49.70;;;;;;5071919;28;20305;-49
2021/12/30 02:04:52;;;;;;;1.10;1.00;;;25.80;49.70;;;;;;5071764;28;20289;-55
2021/12/30 02:07:22;;;;;;;0.95;0.82;;;25.80;49.50;;;;;;5072883;28;20233;-51
2021/12/30 02:09:59;;;;;;;1.75;0.70;;;25.90;49.30;;;;;;5072342;28;20250;-39
2021/12/30 02:12:32;;;;;;;1.80;0.73;;;25.90;49.20;;;;;;5072183;28;20704;-47
2021/12/30 02:15:05;;;;;;;0.93;0.80;;;25.90;49.20;;;;;;5072124;28;20242;-52
2021/12/30 02:17:35;;;;;;;1.10;0.80;;;26.00;49.20;;;;;;5072214;28;20242;-52
2021/12/30 02:20:10;;;;;;;0.88;0.77;;;26.00;49.00;;;;;;5073872;28;20770;-42
2021/12/30 02:22:41;;;;;;;1.10;1.00;;;26.10;48.90;;;;;;5072221;28;20222;-45
2021/12/30 02:25:12;;;;;;;0.93;0.82;;;26.10;48.80;;;;;;5071985;28;20286;-47
2021/12/30 02:27:42;;;;;;;0.98;0.70;;;26.20;48.70;;;;;;5072350;28;20232;-51
2021/12/30 02:30:13;;;;;;;1.27;0.85;;;26.20;48.70;;;;;;5072518;28;20926;-50
2021/12/30 02:32:44;;;;;;;0.82;0.73;;;26.20;48.60;;;;;;5072882;28;20278;-47
2021/12/30 02:35:16;;;;;;;1.42;0.80;;;26.20;48.30;;;;;;5073048;28;20226;-49
2021/12/30 02:37:47;;;;;;;1.00;0.90;;;26.30;48.20;;;;;;5073284;28;20286;-53
2021/12/30 02:40:17;;;;;;;0.82;0.70;;;26.30;48.20;;;;;;5075785;28;20242;-54
2021/12/30 02:42:48;;;;;;;1.15;0.70;;;26.30;48.30;;;;;;5088868;28;20437;-52
2021/12/30 02:45:18;;;;;;;0.75;0.65;;;26.30;48.20;;;;;;5087845;28;20288;-55
2021/12/30 02:47:52;;;;;;;0.77;0.60;;;26.40;48.20;;;;;;5071798;28;20289;-54
2021/12/30 02:50:24;;;;;;;0.63;0.60;;;26.40;48.20;;;;;;5071082;28;20268;-54
2021/12/30 02:52:55;;;;;;;0.93;0.63;;;26.40;48.00;;;;;;5081538;28;20190;-55
2021/12/30 02:55:25;;;;;;;1.08;0.60;;;26.40;47.80;;;;;;5080418;28;20298;-54
2021/12/30 02:57:56;;;;;;;0.80;0.60;;;26.40;47.60;;;;;;5087993;28;20744;-54
2021/12/30 03:00:26;;;;;;;0.80;0.65;;;26.40;47.60;;;;;;5072645;28;20630;-56
2021/12/30 03:02:57;;;;;;;1.38;0.80;;;26.50;47.50;;;;;;5071048;28;20269;-47
2021/12/30 03:05:30;;;;;;;0.98;0.75;;;26.50;47.30;;;;;;5088144;28;20208;-47
2021/12/30 03:08:00;;;;;;;0.70;0.60;;;26.50;47.10;;;;;;5081667;28;20198;-47
2021/12/30 03:10:31;;;;;;;0.77;0.65;;;26.50;47.10;;;;;;5071928;28;20688;-49
2021/12/30 03:13:08;;;;;;;1.08;0.60;;;26.60;47.10;;;;;;5073676;28;20285;-55
2021/12/30 03:15:41;;;;;;;0.90;0.60;;;26.60;47.00;;;;;;5072568;28;20239;-50
2021/12/30 03:18:11;;;;;;;1.63;0.70;;;26.60;46.70;;;;;;5072156;28;20222;-48
2021/12/30 03:20:44;;;;;;;1.58;0.60;;;26.70;46.80;;;;;;5071877;28;20306;-56
2021/12/30 03:23:15;;;;;;;0.80;0.60;;;26.70;46.80;;;;;;5076911;28;20276;-54
2021/12/30 03:25:45;;;;;;;0.82;0.60;;;26.70;46.70;;;;;;5072914;28;20223;-40
2021/12/30 03:28:16;;;;;;;1.45;0.85;;;26.80;46.60;;;;;;5073197;28;20286;-44
2021/12/30 03:30:47;;;;;;;1.17;0.63;;;26.80;46.50;;;;;;5085496;28;20218;-55
2021/12/30 03:33:17;;;;;;;1.02;0.82;;;26.80;46.50;;;;;;5083193;28;20241;-46
2021/12/30 03:35:50;;;;;;;0.60;0.50;;;26.80;46.40;;;;;;5070415;28;20646;-53
2021/12/30 03:38:20;;;;;;;2.38;0.80;;;26.90;46.50;;;;;;5072752;28;20286;-41
2021/12/30 03:40:51;;;;;;;0.80;0.70;;;26.90;46.20;;;;;;5071852;28;20663;-48
2021/12/30 03:43:21;;;;;;;1.02;0.80;;;26.90;46.10;;;;;;5072016;28;20278;-46
2021/12/30 03:45:52;;;;;;;1.05;0.57;;;26.90;46.00;;;;;;5072048;28;20281;-50
2021/12/30 03:48:31;;;;;;;1.15;0.70;;;26.90;45.90;;;;;;5069697;28;20199;-56
2021/12/30 03:51:06;;;;;;;2.33;0.82;;;27.00;45.80;;;;;;5084192;28;20216;-49
2021/12/30 03:53:38;;;;;;;0.43;0.43;;;27.00;45.60;;;;;;5079520;28;20290;-46
2021/12/30 03:56:09;;;;;;;0.60;0.60;;;27.00;45.60;;;;;;5070703;28;20216;-49
2021/12/30 03:58:41;;;;;;;1.05;0.75;;;27.10;45.60;;;;;;5069222;28;20194;-55
2021/12/30 04:01:14;;;;;;;0.65;0.60;;;27.10;45.50;;;;;;5070630;28;20233;-50
2021/12/30 04:03:44;;;;;;;1.48;0.60;;;27.10;45.40;;;;;;5084571;28;20202;-46
2021/12/30 04:06:17;;;;;;;0.93;0.50;;;27.20;45.40;;;;;;5072293;28;20230;-56
2021/12/30 04:08:48;;;;;;;0.90;0.60;;;27.20;45.40;;;;;;5071117;28;20285;-48
2021/12/30 04:11:18;;;;;;;0.77;0.60;;;27.20;45.60;;;;;;5070137;28;20206;-57
2021/12/30 04:13:49;;;;;;;0.85;0.60;;;27.20;45.40;;;;;;5070986;28;20223;-53
2021/12/30 04:16:21;;;;;;;1.67;0.65;;;27.30;45.20;;;;;;5071607;28;20322;-51
2021/12/30 04:18:51;;;;;;;0.98;0.60;;;27.30;45.20;;;;;;5073555;28;20281;-50
2021/12/30 04:21:24;;;;;;;1.42;0.63;;;27.30;45.20;;;;;;5071167;28;20305;-53
2021/12/30 04:23:55;;;;;;;0.90;0.50;;;27.30;45.20;;;;;;5070958;28;20198;-56
2021/12/30 04:26:26;;;;;;;1.30;0.50;;;27.30;45.20;;;;;;5083149;28;20198;-56
2021/12/30 04:28:56;;;;;;;0.65;0.65;;;27.30;45.60;;;;;;5075191;28;20338;-46
2021/12/30 04:31:27;;;;;;;0.80;0.50;;;27.40;44.90;;;;;;5071532;28;20206;-46
2021/12/30 04:33:58;;;;;;;0.70;0.70;;;27.30;44.80;;;;;;5069719;28;20714;-48
2021/12/30 04:36:30;;;;;;;1.65;0.63;;;27.30;44.80;;;;;;5071590;28;20789;-55
2021/12/30 04:39:00;;;;;;;0.93;0.60;;;27.30;44.80;;;;;;5084687;28;20344;-51
2021/12/30 04:41:31;;;;;;;0.40;0.40;;;27.30;44.80;;;;;;5071452;28;20309;-53
2021/12/30 04:44:01;;;;;;;1.45;0.50;;;27.30;44.80;;;;;;5087958;28;20288;-55
2021/12/30 04:46:33;;;;;;;1.23;0.57;;;27.30;44.80;;;;;;5071432;28;20649;-57
2021/12/30 04:49:03;;;;;;;0.75;0.60;;;27.30;44.80;;;;;;5070632;28;20686;-47
2021/12/30 04:51:36;;;;;;;1.65;0.55;;;27.30;44.70;;;;;;5087498;28;20530;-45
2021/12/30 04:54:06;;;;;;;0.60;0.60;;;27.20;44.60;;;;;;5081501;28;20274;-57
2021/12/30 04:56:37;;;;;;;1.40;0.50;;;27.30;44.50;;;;;;5071379;28;20225;-56
2021/12/30 04:59:07;;;;;;;1.05;0.60;;;27.30;44.80;;;;;;5072029;28;20297;-45
2021/12/30 05:01:38;;;;;;;1.05;0.55;;;27.20;44.70;;;;;;5076775;28;20321;-51
2021/12/30 05:04:09;;;;;;;1.48;0.70;;;27.20;44.70;;;;;;5075027;28;20191;-53
2021/12/30 05:06:41;;;;;;;2.03;0.65;;;27.20;44.60;;;;;;5075108;28;20278;-56
2021/12/30 05:09:11;;;;;;;0.90;0.70;;;27.20;44.40;;;;;;5081205;28;20314;-53
2021/12/30 05:11:43;;;;;;;0.60;0.52;;;27.20;44.50;;;;;;5074527;28;20290;-56
2021/12/30 05:14:14;;;;;;;1.02;0.50;;;27.10;45.00;;;;;;5074682;28;20226;-52
2021/12/30 05:16:44;;;;;;;0.47;0.47;;;27.10;44.40;;;;;;5073238;28;20289;-46
2021/12/30 05:19:15;;;;;;;0.70;0.55;;;27.10;44.40;;;;;;5074673;28;20218;-49
2021/12/30 05:21:47;;;;;;;1.67;0.60;;;27.10;44.40;;;;;;5075238;28;20211;-55
2021/12/30 05:24:18;;;;;;;0.45;0.40;;;27.10;44.20;;;;;;5074690;28;20250;-54
2021/12/30 05:26:48;;;;;;;0.80;0.70;;;27.10;44.30;;;;;;5077070;28;20234;-56
2021/12/30 05:29:19;;;;;;;0.90;0.57;;;27.10;44.30;;;;;;5074755;28;20318;-52
2021/12/30 05:31:49;;;;;;;0.52;0.52;;;27.10;44.40;;;;;;5074732;28;20297;-54
2021/12/30 05:34:20;;;;;;;1.17;0.57;;;27.10;44.10;;;;;;5074935;28;20285;-54
2021/12/30 05:36:52;;;;;;;0.85;0.57;;;27.10;44.30;;;;;;5079209;28;20688;-55
2021/12/30 05:39:23;;;;;;;0.63;0.43;;;27.10;44.10;;;;;;5073469;28;20317;-46
2021/12/30 05:41:53;;;;;;;0.75;0.43;;;27.10;44.20;;;;;;5073920;28;20254;-50
2021/12/30 05:44:40;;;;;;;1.00;0.50;;;27.10;44.30;;;;;;5074384;28;20279;-54
2021/12/30 05:47:33;;;;;;;1.45;0.60;;;27.10;43.90;;;;;;5074026;28;20271;-48
2021/12/30 05:50:04;;;;;;;0.68;0.50;;;27.10;44.20;;;;;;5078755;28;20211;-50
2021/12/30 05:52:37;;;;;;;0.68;0.57;;;27.10;43.80;;;;;;5074060;28;20194;-52
2021/12/30 05:55:10;;;;;;;0.80;0.60;;;27.10;44.00;;;;;;5087769;28;20659;-48
2021/12/30 05:57:40;;;;;;;1.08;0.60;;;27.10;43.80;;;;;;5075005;28;20286;-49
2021/12/30 06:00:14;;;;;;;0.73;0.57;;;27.10;43.80;;;;;;5087394;28;20306;-54
2021/12/30 06:02:45;;;;;;;0.88;0.50;;;27.00;43.70;;;;;;5072660;28;20311;-41
2021/12/30 06:05:16;;;;;;;1.30;0.70;;;27.00;43.80;;;;;;5074090;28;20202;-46
2021/12/30 06:07:49;;;;;;;1.20;0.60;;;27.00;43.70;;;;;;5074433;28;20311;-54
2021/12/30 06:10:20;;;;;;;0.50;0.50;;;27.00;43.50;;;;;;5079721;28;20604;-38
2021/12/30 06:12:50;;;;;;;1.23;0.60;;;27.00;43.70;;;;;;5073617;28;20633;-43
2021/12/30 06:15:21;;;;;;;1.23;0.45;;;26.90;43.60;;;;;;5073590;28;20333;-51
2021/12/30 06:17:51;;;;;;;1.20;0.60;;;26.90;44.40;;;;;;5073535;28;20298;-56
2021/12/30 06:20:22;;;;;;;1.10;0.60;;;26.90;43.90;;;;;;5080592;28;20306;-46
2021/12/30 06:22:54;;;;;;;0.95;0.50;;;26.90;44.00;;;;;;5080390;28;20745;-55
2021/12/30 06:25:25;;;;;;;1.23;0.50;;;26.90;43.70;;;;;;5078870;28;20458;-53
2021/12/30 06:27:55;;;;;;;0.75;0.60;;;26.90;43.70;;;;;;5072740;28;20596;-57
2021/12/30 06:30:26;;;;;;;0.35;0.35;;;26.90;43.60;;;;;;5071157;28;20305;-51
2021/12/30 06:32:56;;;;;;;1.27;0.60;;;26.90;43.60;;;;;;5072624;28;20280;-56
2021/12/30 06:35:31;;;;;;;0.40;0.40;;;26.90;43.90;;;;;;5078459;28;20717;-45
2021/12/30 06:38:04;;;;;;;0.40;0.40;;;26.80;43.70;;;;;;5072954;28;20202;-56
2021/12/30 06:40:36;;;;;;;1.05;0.60;;;26.80;43.60;;;;;;5072711;28;20301;-48
2021/12/30 06:43:06;;;;;;;0.77;0.50;;;26.80;43.50;;;;;;5071538;28;20314;-56
2021/12/30 06:45:36;;;;;;;0.60;0.50;;;26.80;43.60;;;;;;5072984;28;20207;-55
2021/12/30 06:48:07;;;;;;;0.60;0.50;;;26.80;43.70;;;;;;5072841;28;20277;-48
2021/12/30 06:50:38;;;;;;;0.57;0.47;;;26.70;43.60;;;;;;5081696;28;20245;-48
2021/12/30 06:53:10;;;;;;;0.80;0.60;;;26.70;43.80;;;;;;5072642;28;20595;-48
2021/12/30 06:55:42;;;;;;;0.60;0.40;;;26.70;43.90;;;;;;5071872;28;20241;-56
2021/12/30 06:58:13;;;;;;;0.60;0.40;;;26.70;44.10;;;;;;5072024;28;20194;-57
2021/12/30 07:00:44;;;;;;;0.80;0.50;;;26.60;44.10;;;;;;5071372;28;20227;-52
2021/12/30 07:03:14;;;;;;;0.55;0.50;;;26.60;43.90;;;;;;5072280;28;20228;-50
2021/12/30 07:05:45;;;;;;;0.60;0.40;;;26.60;44.00;;;;;;5071521;28;20241;-42
2021/12/30 07:08:17;;;;;;;0.80;0.50;;;26.60;44.10;;;;;;5072588;28;20282;-54
2021/12/30 07:10:47;;;;;;;0.95;0.50;;;26.60;44.00;;;;;;5072340;28;20809;-49
2021/12/30 07:13:18;;;;;;;0.73;0.40;;;26.50;44.10;;;;;;5071012;28;20246;-45
2021/12/30 07:15:48;;;;;;;0.43;0.38;;;26.50;44.40;;;;;;5074085;28;20280;-52
2021/12/30 07:18:19;;;;;;;1.48;0.43;;;26.50;44.50;;;;;;5073857;28;20290;-52
2021/12/30 07:20:49;;;;;;;0.40;0.40;;;26.50;44.50;;;;;;5071749;28;20298;-52
2021/12/30 07:23:22;;;;;;;0.80;0.50;;;26.50;44.40;;;;;;5071563;28;20309;-49
2021/12/30 07:25:52;;;;;;;0.85;0.60;;;26.50;44.50;;;;;;5072377;28;20304;-51
2021/12/30 07:28:23;;;;;;;0.80;0.50;;;26.50;44.60;;;;;;5072404;28;20199;-56
2021/12/30 07:30:53;;;;;;;0.70;0.52;;;26.40;44.60;;;;;;5071844;28;20696;-54
2021/12/30 07:33:24;;;;;;;0.45;0.40;;;26.40;44.80;;;;;;5080408;28;20297;-46
2021/12/30 07:35:54;;;;;;;1.17;0.57;;;26.40;44.80;;;;;;5072202;28;20282;-45
2021/12/30 07:38:26;;;;;;;1.30;0.40;;;26.40;44.80;;;;;;5072254;28;20282;-53
2021/12/30 07:40:57;;;;;;;0.40;0.40;;;26.30;44.80;;;;;;5072202;28;20294;-51
2021/12/30 07:43:29;;;;;;;0.75;0.47;;;26.30;44.90;;;;;;5072024;28;20301;-49
2021/12/30 07:45:59;;;;;;;0.85;0.40;;;26.30;45.00;;;;;;5071800;28;20206;-51
2021/12/30 07:48:30;;;;;;;0.63;0.40;;;26.20;45.00;;;;;;5071531;28;20195;-46
2021/12/30 07:51:00;;;;;;;0.63;0.40;;;26.20;45.10;;;;;;5077681;28;20293;-56
2021/12/30 07:53:33;;;;;;;0.98;0.40;;;26.20;45.20;;;;;;5070554;28;20294;-57
2021/12/30 07:56:03;;;;;;;0.98;0.50;;;26.20;45.30;;;;;;5072105;28;20289;-52
2021/12/30 07:58:34;;;;;;;1.60;0.70;;;26.10;45.30;;;;;;5072126;28;20223;-56
2021/12/30 08:01:04;;;;;;;1.10;0.50;;;26.10;45.40;;;;;;5074236;28;20281;-48
2021/12/30 08:03:35;;;;;;;0.68;0.50;;;26.10;45.40;;;;;;5071544;28;20313;-52
2021/12/30 08:06:05;;;;;;;0.52;0.50;;;26.10;45.50;;;;;;5071891;28;20297;-57
2021/12/30 08:08:39;;;;;;;0.52;0.52;;;26.10;45.50;;;;;;5071917;28;20237;-57
2021/12/30 08:11:10;;;;;;;0.93;0.40;;;26.10;45.60;;;;;;5071719;28;20191;-53
2021/12/30 08:13:40;;;;;;;0.63;0.50;;;26.00;45.60;;;;;;5082548;28;20289;-56
2021/12/30 08:16:12;;;;;;;0.82;0.50;;;26.00;45.70;;;;;;5087414;28;20289;-44
2021/12/30 08:18:42;;;;;;;0.70;0.50;;;26.00;45.80;;;;;;5082293;28;20201;-54
2021/12/30 08:21:13;;;;;;;0.60;0.45;;;26.00;45.80;;;;;;5073371;28;20261;-57
2021/12/30 08:23:46;;;;;;;1.15;0.60;;;25.90;45.80;;;;;;5071506;28;20404;-52
2021/12/30 08:26:16;;;;;;;0.57;0.50;;;25.90;45.80;;;;;;5071333;28;20295;-53
2021/12/30 08:28:47;;;;;;;0.38;0.32;;;25.90;45.90;;;;;;5069897;28;20297;-43
2021/12/30 08:31:18;;;;;;;0.90;0.47;;;25.90;46.00;;;;;;5086217;28;20286;-46
2021/12/30 08:33:48;;;;;;;0.73;0.43;;;25.80;46.00;;;;;;5073074;28;20854;-54
2021/12/30 08:36:19;;;;;;;0.40;0.35;;;25.80;46.00;;;;;;5093124;28;20233;-50
2021/12/30 08:38:51;;;;;;;0.50;0.43;;;25.80;46.10;;;;;;5076153;28;20244;-55
2021/12/30 08:41:21;;;;;;;1.13;0.47;;;25.80;46.20;;;;;;5075764;28;20639;-51
2021/12/30 08:43:52;;;;;;;0.75;0.50;;;25.70;46.10;;;;;;5075356;28;20300;-54
2021/12/30 08:46:22;;;;;;;0.70;0.57;;;25.70;46.20;;;;;;5075905;28;20631;-49
2021/12/30 08:48:53;;;;;;;0.40;0.40;;;25.70;46.30;;;;;;5075629;28;20226;-45
2021/12/30 08:51:23;;;;;;;0.43;0.43;;;25.70;46.40;;;;;;5075125;28;20278;-43
2021/12/30 08:53:56;;;;;;;1.00;0.38;;;25.60;46.30;;;;;;5074820;28;20859;-50
2021/12/30 08:56:26;;;;;;;0.32;0.32;;;25.60;46.40;;;;;;5075420;28;20723;-51
2021/12/30 08:58:57;;;;;;;8.68;2.45;;;25.60;46.40;;;;;;5074532;28;20750;-57
2021/12/30 09:01:29;;;;;;;105.50;7.90;;;25.60;46.50;;;;;;5075186;28;20315;-43
2021/12/30 09:03:59;;;;;;;27.20;2.30;;;25.60;46.60;;;;;;5075030;28;20309;-50
2021/12/30 09:06:29;;;;;;;18.90;2.03;;;25.50;46.50;;;;;;5075283;28;20286;-52
2021/12/30 09:09:02;;;;;;;5.57;0.75;;;25.50;46.50;;;;;;5075248;28;20298;-57
2021/12/30 09:11:32;;;;;;;8.45;1.25;;;25.50;46.50;;;;;;5086189;28;20277;-46
2021/12/30 09:14:03;;;;;;;9.45;1.25;;;25.50;46.60;;;;;;5091242;28;20282;-57
2021/12/30 09:16:33;;;;;;;10.77;1.10;;;25.40;46.60;;;;;;5081611;28;20203;-53
2021/12/30 09:19:04;;;;;;;7.22;1.45;;;25.40;46.70;;;;;;5074295;28;20302;-54
2021/12/30 09:21:35;;;;;;;8.93;1.17;;;25.40;46.70;;;;;;5074285;28;20689;-48
2021/12/30 09:24:08;;;;;;;5.95;1.30;;;25.40;46.90;;;;;;5074070;28;20310;-51
2021/12/30 09:26:39;;;;;;;5.75;1.17;;;25.30;46.80;;;;;;5074148;28;20293;-54
2021/12/30 09:29:12;;;;;;;7.15;1.20;;;25.30;46.80;;;;;;5074468;28;20295;-48
2021/12/30 09:31:44;;;;;;;7.68;1.13;;;25.30;46.90;;;;;;5074470;28;20206;-52
2021/12/30 09:34:14;;;;;;;7.45;0.90;;;25.30;46.90;;;;;;5074322;28;20694;-54
2021/12/30 09:36:45;;;;;;;5.32;1.08;;;25.30;47.00;;;;;;5074136;28;20281;-51
2021/12/30 09:39:18;;;;;;;5.82;1.02;;;25.20;47.00;;;;;;5073992;28;20302;-41
2021/12/30 09:41:50;;;;;;;4.47;1.00;;;25.20;47.00;;;;;;5081725;28;20277;-54
2021/12/30 09:44:21;;;;;;;4.90;1.00;;;25.20;47.10;;;;;;5073124;28;20230;-56
2021/12/30 09:46:52;;;;;;;2.70;0.90;;;25.20;47.10;;;;;;5074051;28;20202;-52
2021/12/30 09:49:24;;;;;;;4.43;1.05;;;25.10;47.10;;;;;;5087730;28;20306;-57
2021/12/30 09:51:54;;;;;;;7.97;1.55;;;25.10;47.20;;;;;;5073851;28;20186;-46
2021/12/30 09:54:27;;;;;;;3.22;0.90;;;25.10;47.20;;;;;;5074180;28;20281;-57
2021/12/30 09:56:57;;;;;;;6.18;1.30;;;25.10;47.30;;;;;;5089260;28;20646;-57
2021/12/30 09:59:30;;;;;;;4.88;0.80;;;25.00;47.30;;;;;;5074072;28;20323;-49
2021/12/30 10:02:00;;;;;;;1.58;0.88;;;25.00;47.40;;;;;;5076236;28;20282;-58
2021/12/30 10:04:34;;;;;;;5.63;0.90;;;25.00;47.40;;;;;;5073722;28;20294;-52
2021/12/30 10:07:19;;;;;;;4.28;1.00;;;24.90;47.50;;;;;;5074190;28;20651;-48
2021/12/30 10:09:56;;;;;;;4.60;0.85;;;24.90;47.50;;;;;;5077620;28;20296;-55
2021/12/30 10:12:44;;;;;;;7.50;1.30;;;24.90;47.60;;;;;;5082997;28;20193;-49
2021/12/30 10:15:15;;;;;;;9.20;1.35;;;24.90;47.70;;;;;;5090463;28;20205;-56
2021/12/30 10:17:54;;;;;;;4.18;1.00;;;24.80;47.70;;;;;;5076958;28;20205;-54
2021/12/30 10:20:27;;;;;;;7.18;1.30;;;24.80;47.70;;;;;;5073311;28;20309;-50
2021/12/30 10:22:59;;;;;;;2.63;1.10;;;24.80;47.70;;;;;;5073382;28;20659;-46
2021/12/30 10:25:33;;;;;;;4.57;1.45;;;24.80;47.80;;;;;;5080816;28;20285;-56
2021/12/30 10:28:26;;;;;;;4.57;1.08;;;24.70;47.80;;;;;;5075137;28;20284;-56
2021/12/30 10:31:00;;;;;;;4.20;1.17;;;24.70;47.90;;;;;;5073335;28;20650;-57
2021/12/30 10:33:32;;;;;;;3.42;0.88;;;24.70;47.90;;;;;;5073339;28;20289;-55
2021/12/30 10:36:02;;;;;;;5.50;1.25;;;24.70;48.00;;;;;;5072763;28;20191;-56
2021/12/30 10:38:33;;;;;;;2.28;1.02;;;24.70;48.00;;;;;;5072635;28;20290;-48
2021/12/30 10:41:06;;;;;;;3.22;1.23;;;24.60;48.00;;;;;;5076779;28;20290;-56
2021/12/30 10:43:45;;;;;;;3.60;1.02;;;24.60;48.10;;;;;;5073164;28;20326;-46
2021/12/30 10:46:21;;;;;;;2.15;1.00;;;24.60;48.10;;;;;;5078676;28;20193;-56
2021/12/30 10:49:01;;;;;;;2.33;0.90;;;24.50;48.10;;;;;;5081533;28;20285;-54
2021/12/30 10:51:37;;;;;;;3.67;1.00;;;24.50;48.20;;;;;;5073099;28;20705;-48
2021/12/30 10:54:18;;;;;;;1.88;0.85;;;24.50;48.20;;;;;;5073157;28;20293;-55
2021/12/30 10:56:56;;;;;;;4.20;1.45;;;24.50;48.20;;;;;;5071292;28;20281;-52
2021/12/30 10:59:29;;;;;;;3.50;1.00;;;24.40;48.20;;;;;;5072660;28;20284;-48
2021/12/30 11:02:04;;;;;;;3.05;1.33;;;24.40;48.30;;;;;;5072923;28;20277;-41
2021/12/30 11:04:39;;;;;;;3.80;1.20;;;24.40;48.30;;;;;;5071955;28;20309;-52
2021/12/30 11:07:11;;;;;;;2.65;1.25;;;24.40;48.30;;;;;;5083198;28;20292;-56
2021/12/30 11:09:49;;;;;;;3.38;0.95;;;24.30;48.30;;;;;;5072605;28;20301;-57
2021/12/30 11:12:27;;;;;;;2.25;1.00;;;24.30;48.40;;;;;;5088005;28;20205;-57
2021/12/30 11:15:00;;;;;;;2.50;1.02;;;24.30;48.70;;;;;;5072741;28;20636;-49
2021/12/30 11:17:34;;;;;;;2.72;1.10;;;24.30;48.40;;;;;;5072272;28;20260;-48
2021/12/30 11:20:07;;;;;;;3.47;1.15;;;24.20;48.40;;;;;;5071878;28;20635;-47
2021/12/30 11:22:38;;;;;;;2.70;1.27;;;24.30;48.50;;;;;;5072354;28;20233;-57
2021/12/30 11:25:11;;;;;;;1.35;0.95;;;24.20;48.50;;;;;;5073666;28;20325;-54
2021/12/30 11:27:44;;;;;;;2.53;1.10;;;24.20;48.50;;;;;;5081826;28;20720;-57
2021/12/30 11:30:17;;;;;;;2.25;1.10;;;24.20;48.50;;;;;;5072321;28;20254;-48
2021/12/30 11:32:48;;;;;;;2.60;0.88;;;24.10;48.50;;;;;;5072176;28;20314;-43
2021/12/30 11:35:21;;;;;;;2.38;1.08;;;24.10;48.60;;;;;;5071838;28;20210;-42
2021/12/30 11:37:52;;;;;;;2.53;1.10;;;24.10;48.60;;;;;;5072295;28;20198;-45
2021/12/30 11:40:25;;;;;;;2.53;0.93;;;24.10;48.60;;;;;;5074900;28;20799;-45
2021/12/30 11:42:59;;;;;;;3.20;1.20;;;24.00;48.60;;;;;;5088775;28;20622;-46
2021/12/30 11:45:31;;;;;;;3.45;1.17;;;24.00;48.60;;;;;;5087415;28;20700;-56
2021/12/30 11:48:03;;;;;;;3.00;1.00;;;24.00;48.60;;;;;;5072099;28;20285;-44
2021/12/30 11:50:36;;;;;;;3.30;1.00;;;24.00;48.60;;;;;;5084777;28;20256;-50
2021/12/30 11:53:11;;;;;;;1.92;0.80;;;24.00;48.70;;;;;;5072903;28;20206;-56
2021/12/30 11:56:00;;;;;;;2.13;0.90;;;23.90;48.70;;;;;;5074885;28;20194;-54
2021/12/30 11:58:45;;;;;;;3.17;1.20;;;23.90;48.70;;;;;;5071741;28;21059;-46
2021/12/30 12:01:31;;;;;;;2.53;0.95;;;23.90;48.70;;;;;;5071897;28;20195;-54
2021/12/30 12:04:02;;;;;;;2.10;0.98;;;23.90;48.80;;;;;;5075615;28;20269;-44
2021/12/30 12:06:36;;;;;;;3.00;1.10;;;23.80;48.70;;;;;;5083847;28;20549;-54
2021/12/30 12:09:11;;;;;;;2.45;0.90;;;23.80;48.80;;;;;;5087828;28;20747;-49
2021/12/30 12:11:53;;;;;;;1.80;1.00;;;23.80;48.80;;;;;;5074552;28;20232;-45
2021/12/30 12:14:27;;;;;;;1.65;1.05;;;23.80;48.80;;;;;;5071399;28;20282;-49
2021/12/30 12:17:00;;;;;;;1.55;0.80;;;23.80;48.90;;;;;;5071207;28;20243;-49
2021/12/30 12:19:45;;;;;;;2.75;0.90;;;23.80;48.90;;;;;;5071010;28;20301;-49
2021/12/30 12:22:31;;;;;;;2.05;0.93;;;23.70;48.90;;;;;;5071361;28;20281;-47
2021/12/30 12:25:14;;;;;;;2.67;1.00;;;23.70;48.90;;;;;;5071461;28;20261;-55
2021/12/30 12:27:47;;;;;;;1.98;1.05;;;23.70;48.90;;;;;;5073914;28;20284;-54
2021/12/30 12:30:30;;;;;;;1.75;0.82;;;23.70;49.00;;;;;;5071355;28;20674;-45
2021/12/30 12:33:02;;;;;;;1.77;0.80;;;23.60;48.90;;;;;;5071447;28;20282;-52
2021/12/30 12:35:35;;;;;;;1.13;0.80;;;23.60;49.00;;;;;;5071188;28;20290;-49
2021/12/30 12:38:09;;;;;;;2.00;0.90;;;23.60;49.00;;;;;;5071128;28;20218;-52
2021/12/30 12:40:42;;;;;;;1.67;0.73;;;23.60;49.00;;;;;;5072979;28;20305;-50
2021/12/30 12:43:26;;;;;;;1.63;0.80;;;23.50;49.00;;;;;;5086342;28;20285;-43
2021/12/30 12:46:04;;;;;;;2.03;1.08;;;23.50;49.00;;;;;;5077695;28;20605;-54
2021/12/30 12:48:38;;;;;;;2.67;1.08;;;23.50;49.10;;;;;;5071506;28;20229;-55
2021/12/30 12:51:11;;;;;;;1.05;0.70;;;23.50;49.10;;;;;;5071101;28;20750;-47
2021/12/30 12:53:49;;;;;;;2.42;0.93;;;23.50;49.10;;;;;;5070690;28;20286;-53
2021/12/30 12:56:29;;;;;;;2.63;1.10;;;23.50;49.10;;;;;;5076618;28;20285;-57
2021/12/30 12:59:03;;;;;;;2.53;0.90;;;23.40;49.10;;;;;;5070313;28;20215;-57
2021/12/30 13:01:35;;;;;;;1.58;0.85;;;23.40;49.20;;;;;;5079125;28;20234;-57
2021/12/30 13:04:08;;;;;;;1.83;0.98;;;23.40;49.20;;;;;;5070550;28;20297;-57
2021/12/30 13:06:41;;;;;;;1.73;0.85;;;23.40;49.20;;;;;;5070634;28;20200;-53
2021/12/30 13:09:13;;;;;;;2.13;1.00;;;23.40;49.20;;;;;;5070707;28;20216;-57
2021/12/30 13:11:45;;;;;;;1.77;0.80;;;23.30;49.20;;;;;;5074735;28;20282;-57